Nasco Pearl — VRHS2 — position and weather

sailwx.info

Track history (hours):
 
Tides and Currents Weather Stations Pressure Air Temp Water Temp Dewpoint Dewpoint Depression Visibility Wind Speed Wind Dir Waves Ship Positions

Nasco Pearl

Last reported at 2015-Apr-04 09:33 UTC. Time now 2015-Apr-19 22:55 UTC.
Position N 01°13' E 103°53'.
Warning: this ship's position is 15 days out of date.

Length 189 m; draft 11.3 m.

Type: Cargo ship. MMSI: 477982400.

Date/timePositionNaut miles runAvg speedWind from/ knotsBaromVisibWave heightAir tempDewpointWater temp
2015-Apr-04 09:33N 01°13' E 103°53'  
2015-Mar-29 21:32N 23°30' E 117°48'7712.8
2015-Mar-29 15:31N 24°18' E 118°54'1514.0
2015-Mar-29 14:29N 24°28' E 119°06'1213.5
2015-Mar-29 13:33N 24°35' E 119°17'32712.9
2015-Mar-28 12:14N 29°09' E 122°37'3613.1
2015-Mar-28 09:28N 29°43' E 122°52'22712.7
2015-Mar-27 15:33N 33°30' E 123°15'17813.4
2015-Mar-27 02:17N 36°28' E 123°15'2212.9
2015-Mar-27 00:33N 36°50' E 123°16'1312.9
2015-Mar-26 23:33N 37°03' E 123°15'1313.5
2015-Mar-26 22:33N 37°16' E 123°14'1414.3
2015-Mar-26 21:33N 37°29' E 123°08'25912.9
2015-Mar-26 01:26N 38°57' E 117°57'910.2
2015-Mar-26 00:33N 38°60' E 117°47'3 2.8
2015-Mar-25 23:29N 39°03' E 117°46'0 0.0
2015-Mar-25 22:29N 39°03' E 117°46'0 0.0
2015-Mar-25 21:29N 39°03' E 117°46'0 0.0
2015-Mar-25 20:29N 39°03' E 117°46'0 0.0
2015-Mar-25 19:23N 39°03' E 117°46'0 0.0
2015-Mar-25 18:23N 39°03' E 117°46'0 0.0
2015-Mar-25 17:23N 39°03' E 117°46'0 0.0
2015-Mar-25 16:29N 39°03' E 117°46'0 0.0
2015-Mar-25 15:29N 39°03' E 117°46'0 0.0
2015-Mar-25 14:29N 39°03' E 117°46'0 0.0
2015-Mar-25 13:29N 39°03' E 117°46'0 0.0
2015-Mar-25 12:17N 39°03' E 117°46'0 0.0
2015-Mar-25 11:23N 39°03' E 117°46'0 0.0
2015-Mar-25 10:29N 39°03' E 117°46'  
Track history (hours):
 
Tides and Currents Weather Stations Pressure Air Temp Water Temp Dewpoint Dewpoint Depression Visibility Wind Speed Wind Dir Waves Ship Positions

Nasco Pearl

Last reported at 2015-Apr-04 09:33 UTC. Time now 2015-Apr-19 22:55 UTC.
Position N 01°13' E 103°53'.
Warning: this ship's position is 15 days out of date.

Length 189 m; draft 11.3 m.

Type: Cargo ship. MMSI: 477982400.

Date/timePositionNaut miles runAvg speedWind from/ knotsBaromVisibWave heightAir tempDewpointWater temp
2015-Apr-04 09:33N 01°13' E 103°53'  
2015-Mar-29 21:32N 23°30' E 117°48'7712.8
2015-Mar-29 15:31N 24°18' E 118°54'1514.0
2015-Mar-29 14:29N 24°28' E 119°06'1213.5
2015-Mar-29 13:33N 24°35' E 119°17'32712.9
2015-Mar-28 12:14N 29°09' E 122°37'3613.1
2015-Mar-28 09:28N 29°43' E 122°52'22712.7
2015-Mar-27 15:33N 33°30' E 123°15'17813.4
2015-Mar-27 02:17N 36°28' E 123°15'2212.9
2015-Mar-27 00:33N 36°50' E 123°16'1312.9
2015-Mar-26 23:33N 37°03' E 123°15'1313.5
2015-Mar-26 22:33N 37°16' E 123°14'1414.3
2015-Mar-26 21:33N 37°29' E 123°08'25912.9
2015-Mar-26 01:26N 38°57' E 117°57'910.2
2015-Mar-26 00:33N 38°60' E 117°47'3 2.8
2015-Mar-25 23:29N 39°03' E 117°46'0 0.0
2015-Mar-25 22:29N 39°03' E 117°46'0 0.0
2015-Mar-25 21:29N 39°03' E 117°46'0 0.0
2015-Mar-25 20:29N 39°03' E 117°46'0 0.0
2015-Mar-25 19:23N 39°03' E 117°46'0 0.0
2015-Mar-25 18:23N 39°03' E 117°46'0 0.0
2015-Mar-25 17:23N 39°03' E 117°46'0 0.0
2015-Mar-25 16:29N 39°03' E 117°46'0 0.0
2015-Mar-25 15:29N 39°03' E 117°46'0 0.0
2015-Mar-25 14:29N 39°03' E 117°46'0 0.0
2015-Mar-25 13:29N 39°03' E 117°46'0 0.0
2015-Mar-25 12:17N 39°03' E 117°46'0 0.0
2015-Mar-25 11:23N 39°03' E 117°46'0 0.0
2015-Mar-25 10:29N 39°03' E 117°46'  

Dump ship's entire track history